createdAt,value
2019-05-07T00:00:27.525Z,929.36
2019-05-07T00:01:27.483Z,929.33
2019-05-07T00:02:27.486Z,929.34
2019-05-07T00:03:27.459Z,929.33
2019-05-07T00:04:27.443Z,929.34
2019-05-07T00:05:27.424Z,929.35
2019-05-07T00:06:27.401Z,929.35
2019-05-07T00:07:27.366Z,929.36
2019-05-07T00:08:27.366Z,929.34
2019-05-07T00:09:27.349Z,929.34
2019-05-07T00:10:27.319Z,929.37
2019-05-07T00:11:27.308Z,929.36
2019-05-07T00:12:27.293Z,929.34
2019-05-07T00:13:27.272Z,929.38
2019-05-07T00:14:27.237Z,929.34
2019-05-07T00:15:27.219Z,929.37
2019-05-07T00:16:27.179Z,929.41
2019-05-07T00:17:27.165Z,929.40
2019-05-07T00:18:27.161Z,929.38
2019-05-07T00:19:27.145Z,929.41
2019-05-07T00:20:27.117Z,929.39
2019-05-07T00:21:27.108Z,929.36
2019-05-07T00:22:27.085Z,929.39
2019-05-07T00:23:27.066Z,929.37
2019-05-07T00:24:27.038Z,929.36
2019-05-07T00:25:27.021Z,929.31
2019-05-07T00:26:27.000Z,929.34
2019-05-07T00:27:26.995Z,929.34
2019-05-07T00:28:26.945Z,929.33
2019-05-07T00:29:26.938Z,929.33
2019-05-07T00:30:26.897Z,929.29
2019-05-07T00:31:26.900Z,929.38
2019-05-07T00:32:26.879Z,929.32
2019-05-07T00:33:26.860Z,929.36
2019-05-07T00:34:26.840Z,929.33
2019-05-07T00:35:26.818Z,929.35
2019-05-07T00:36:26.851Z,929.34
2019-05-07T00:37:26.758Z,929.31
2019-05-07T00:38:26.757Z,929.27
2019-05-07T00:39:26.739Z,929.22
2019-05-07T00:40:26.712Z,929.25
2019-05-07T00:41:26.701Z,929.26
2019-05-07T00:42:26.671Z,929.25
2019-05-07T00:43:26.664Z,929.30
2019-05-07T00:44:26.637Z,929.25
2019-05-07T00:45:26.617Z,929.27
2019-05-07T00:46:26.594Z,929.30
2019-05-07T00:47:26.570Z,929.31
2019-05-07T00:48:26.556Z,929.34
2019-05-07T00:49:26.534Z,929.33
2019-05-07T00:50:26.515Z,929.36
2019-05-07T00:51:26.492Z,929.33
2019-05-07T00:52:26.470Z,929.38
2019-05-07T00:53:26.460Z,929.38
2019-05-07T00:54:26.426Z,929.40
2019-05-07T00:55:26.419Z,929.40
2019-05-07T00:56:26.379Z,929.44
2019-05-07T00:57:26.370Z,929.41
2019-05-07T00:58:26.844Z,929.43
2019-05-07T00:59:26.326Z,929.47
2019-05-07T01:00:26.308Z,929.45
2019-05-07T01:01:26.290Z,929.46
2019-05-07T01:02:26.270Z,929.46
2019-05-07T01:03:26.253Z,929.42
2019-05-07T01:04:26.228Z,929.49
2019-05-07T01:05:26.186Z,929.48
2019-05-07T01:06:26.789Z,929.48
2019-05-07T01:07:26.171Z,929.44
2019-05-07T01:08:26.146Z,929.49
2019-05-07T01:09:26.126Z,929.53
2019-05-07T01:10:26.100Z,929.49
2019-05-07T01:11:26.086Z,929.48
2019-05-07T01:12:26.148Z,929.51
2019-05-07T01:13:26.040Z,929.55
2019-05-07T01:14:26.025Z,929.53
2019-05-07T01:15:31.080Z,929.54
2019-05-07T01:16:25.978Z,929.59
2019-05-07T01:17:25.963Z,929.58
2019-05-07T01:18:25.935Z,929.54
2019-05-07T01:19:25.901Z,929.54
2019-05-07T01:20:25.897Z,929.54
2019-05-07T01:21:25.862Z,929.56
2019-05-07T01:22:25.839Z,929.59
2019-05-07T01:23:25.841Z,929.62
2019-05-07T01:24:25.799Z,929.62
2019-05-07T01:25:25.806Z,929.63
2019-05-07T01:26:25.779Z,929.67
2019-05-07T01:27:25.761Z,929.65
2019-05-07T01:28:25.736Z,929.67
2019-05-07T01:29:25.711Z,929.67
2019-05-07T01:30:25.696Z,929.69
2019-05-07T01:31:25.676Z,929.66
2019-05-07T01:32:25.655Z,929.62
2019-05-07T01:33:25.636Z,929.62
2019-05-07T01:34:25.597Z,929.61
2019-05-07T01:35:25.592Z,929.65
2019-05-07T01:36:25.571Z,929.62
2019-05-07T01:37:25.557Z,929.62
2019-05-07T01:38:25.525Z,929.62
2019-05-07T01:39:25.489Z,929.64
2019-05-07T01:40:25.475Z,929.65
2019-05-07T01:41:25.472Z,929.65
2019-05-07T01:42:25.426Z,929.63
2019-05-07T01:43:25.423Z,929.64
2019-05-07T01:44:25.420Z,929.61
2019-05-07T01:45:25.385Z,929.62
2019-05-07T01:46:25.360Z,929.62
2019-05-07T01:47:25.340Z,929.60
2019-05-07T01:48:25.324Z,929.57
2019-05-07T01:49:25.282Z,929.59
2019-05-07T01:50:25.284Z,929.57
2019-05-07T01:51:25.262Z,929.54
2019-05-07T01:52:25.240Z,929.54
2019-05-07T01:53:25.220Z,929.51
2019-05-07T01:54:25.202Z,929.53
2019-05-07T01:55:25.181Z,929.51
2019-05-07T01:56:25.154Z,929.52
2019-05-07T01:57:25.143Z,929.54
2019-05-07T01:58:25.117Z,929.57
2019-05-07T01:59:25.084Z,929.56
2019-05-07T02:00:25.059Z,929.52
2019-05-07T02:01:25.061Z,929.57
2019-05-07T02:02:25.020Z,929.46
2019-05-07T02:03:25.017Z,929.52
2019-05-07T02:04:24.996Z,929.49
2019-05-07T02:05:24.975Z,929.53
2019-05-07T02:06:24.960Z,929.48
2019-05-07T02:07:24.911Z,929.50
2019-05-07T02:08:24.918Z,929.54
2019-05-07T02:09:24.894Z,929.54
2019-05-07T02:10:24.866Z,929.59
2019-05-07T02:11:24.860Z,929.52
2019-05-07T02:12:24.830Z,929.49
2019-05-07T02:13:24.809Z,929.58
2019-05-07T02:14:24.790Z,929.56
2019-05-07T02:15:24.767Z,929.54
2019-05-07T02:16:24.754Z,929.51
2019-05-07T02:17:24.729Z,929.54
2019-05-07T02:18:24.684Z,929.49
2019-05-07T02:19:24.687Z,929.43
2019-05-07T02:20:24.665Z,929.44
2019-05-07T02:21:24.765Z,929.43
2019-05-07T02:22:24.626Z,929.39
2019-05-07T02:23:24.588Z,929.41
2019-05-07T02:24:24.587Z,929.41
2019-05-07T02:25:24.562Z,929.41
2019-05-07T02:26:24.542Z,929.39
2019-05-07T02:27:24.523Z,929.39
2019-05-07T02:28:24.479Z,929.39
2019-05-07T02:29:24.486Z,929.31
2019-05-07T02:30:24.466Z,929.31
2019-05-07T02:31:24.452Z,929.35
2019-05-07T02:32:24.416Z,929.34
2019-05-07T02:33:24.397Z,929.26
2019-05-07T02:34:24.384Z,929.28
2019-05-07T02:35:24.358Z,929.27
2019-05-07T02:36:24.536Z,929.29
2019-05-07T02:37:29.499Z,929.23
2019-05-07T02:38:24.435Z,929.22
2019-05-07T02:39:24.402Z,929.18
2019-05-07T02:40:24.265Z,929.20
2019-05-07T02:41:24.239Z,929.16
2019-05-07T02:42:24.255Z,929.15
2019-05-07T02:43:24.198Z,929.14
2019-05-07T02:44:24.158Z,929.14
2019-05-07T02:45:24.256Z,929.22
2019-05-07T02:46:31.058Z,929.17
2019-05-07T02:47:24.114Z,929.17
2019-05-07T02:48:24.087Z,929.15
2019-05-07T02:49:24.068Z,929.23
2019-05-07T02:50:24.053Z,929.26
2019-05-07T02:51:24.169Z,929.22
2019-05-07T02:52:24.013Z,929.28
2019-05-07T02:53:23.968Z,929.32
2019-05-07T02:54:24.505Z,929.32
2019-05-07T02:55:23.953Z,929.38
2019-05-07T02:56:23.932Z,929.36
2019-05-07T02:57:24.352Z,929.41
2019-05-07T02:58:24.297Z,929.41
2019-05-07T02:59:23.871Z,929.41
2019-05-07T03:00:24.461Z,929.49
2019-05-07T03:01:23.823Z,929.52
2019-05-07T03:02:24.250Z,929.47
2019-05-07T03:03:24.637Z,929.56
2019-05-07T03:04:25.166Z,929.57
2019-05-07T03:05:23.726Z,929.61
2019-05-07T03:06:23.726Z,929.57
2019-05-07T03:07:24.362Z,929.59
2019-05-07T03:08:27.411Z,929.58
2019-05-07T03:09:23.673Z,929.60
2019-05-07T03:10:24.153Z,929.61
2019-05-07T03:11:23.600Z,929.62
2019-05-07T03:12:23.946Z,929.64
2019-05-07T03:13:24.169Z,929.62
2019-05-07T03:14:23.707Z,929.61
2019-05-07T03:15:24.356Z,929.66
2019-05-07T03:16:38.075Z,929.64
2019-05-07T03:17:24.572Z,929.63
2019-05-07T03:18:23.593Z,929.56
2019-05-07T03:19:24.272Z,929.53
2019-05-07T03:20:23.449Z,929.51
2019-05-07T03:21:23.845Z,929.49
2019-05-07T03:22:23.552Z,929.49
2019-05-07T03:23:23.373Z,929.49
2019-05-07T03:24:23.357Z,929.44
2019-05-07T03:25:23.346Z,929.46
2019-05-07T03:26:23.320Z,929.44
2019-05-07T03:27:23.745Z,929.45
2019-05-07T03:28:23.401Z,929.51
2019-05-07T03:29:24.011Z,929.56
2019-05-07T03:30:26.107Z,929.53
2019-05-07T03:31:26.133Z,929.60
2019-05-07T03:32:27.337Z,929.58
2019-05-07T03:33:26.218Z,929.63
2019-05-07T03:34:25.751Z,929.71
2019-05-07T03:35:27.461Z,929.73
2019-05-07T03:36:26.093Z,929.62
2019-05-07T03:37:23.495Z,929.63
2019-05-07T03:38:23.093Z,929.62
2019-05-07T03:39:24.001Z,929.65
2019-05-07T03:40:23.264Z,929.60
2019-05-07T03:41:23.004Z,929.61
2019-05-07T03:42:23.613Z,929.67
2019-05-07T03:43:23.027Z,929.71
2019-05-07T03:44:23.862Z,929.64
2019-05-07T03:45:23.219Z,929.74
2019-05-07T03:46:23.676Z,929.65
2019-05-07T03:47:23.807Z,929.67
2019-05-07T03:48:23.824Z,929.68
2019-05-07T03:49:22.835Z,929.72
2019-05-07T03:50:23.282Z,929.77
2019-05-07T03:51:23.715Z,929.72
2019-05-07T03:52:24.400Z,929.78
2019-05-07T03:53:23.428Z,929.76
2019-05-07T03:54:23.929Z,929.83
2019-05-07T03:55:23.336Z,929.76
2019-05-07T03:56:23.712Z,929.77
2019-05-07T03:57:23.722Z,929.82
2019-05-07T03:58:23.817Z,929.82
2019-05-07T03:59:23.339Z,929.82
2019-05-07T04:00:23.912Z,929.77
2019-05-07T04:01:23.975Z,929.82
2019-05-07T04:02:23.825Z,929.80
2019-05-07T04:03:24.337Z,929.80
2019-05-07T04:04:23.098Z,929.78
2019-05-07T04:05:23.209Z,929.86
2019-05-07T04:06:23.424Z,929.77
2019-05-07T04:07:23.342Z,929.76
2019-05-07T04:08:23.707Z,929.75
2019-05-07T04:09:24.192Z,929.77
2019-05-07T04:10:23.235Z,929.80
2019-05-07T04:11:23.179Z,929.76
2019-05-07T04:12:23.859Z,929.73
2019-05-07T04:13:23.881Z,929.72
2019-05-07T04:14:23.129Z,929.62
2019-05-07T04:15:23.329Z,929.65
2019-05-07T04:16:24.046Z,929.68
2019-05-07T04:17:26.457Z,929.74
2019-05-07T04:18:23.723Z,929.72
2019-05-07T04:19:23.557Z,929.70
2019-05-07T04:20:24.028Z,929.72
2019-05-07T04:21:23.186Z,929.68
2019-05-07T04:22:26.539Z,929.63
2019-05-07T04:23:23.215Z,929.72
2019-05-07T04:24:23.545Z,929.70
2019-05-07T04:25:24.060Z,929.65
2019-05-07T04:26:23.274Z,929.64
2019-05-07T04:27:23.886Z,929.63
2019-05-07T04:28:23.601Z,929.64
2019-05-07T04:29:23.066Z,929.61
2019-05-07T04:30:23.487Z,929.58
2019-05-07T04:31:22.936Z,929.57
2019-05-07T04:32:23.187Z,929.54
2019-05-07T04:33:23.716Z,929.55
2019-05-07T04:34:23.750Z,929.50
2019-05-07T04:35:24.349Z,929.45
2019-05-07T04:36:23.017Z,929.44
2019-05-07T04:37:24.006Z,929.46
2019-05-07T04:38:23.831Z,929.39
2019-05-07T04:39:23.115Z,929.45
2019-05-07T04:40:23.980Z,929.47
2019-05-07T04:41:23.411Z,929.40
2019-05-07T04:42:24.353Z,929.39
2019-05-07T04:43:23.320Z,929.45
2019-05-07T04:44:23.536Z,929.46
2019-05-07T04:45:23.166Z,929.45
2019-05-07T04:46:23.567Z,929.36
2019-05-07T04:47:36.982Z,929.36
2019-05-07T04:48:23.333Z,929.39
2019-05-07T04:49:23.870Z,929.35
2019-05-07T04:50:37.895Z,929.36
2019-05-07T04:51:23.211Z,929.31
2019-05-07T04:52:23.798Z,929.29
2019-05-07T04:53:23.683Z,929.20
2019-05-07T04:54:23.713Z,929.23
2019-05-07T04:55:22.996Z,929.26
2019-05-07T04:56:23.774Z,929.20
2019-05-07T04:57:23.609Z,929.22
2019-05-07T04:58:23.715Z,929.27
2019-05-07T04:59:23.726Z,929.32
2019-05-07T05:00:22.923Z,929.38
2019-05-07T05:01:23.434Z,929.36
2019-05-07T05:02:23.094Z,929.31
2019-05-07T05:03:23.698Z,929.42
2019-05-07T05:04:29.968Z,929.47
2019-05-07T05:05:23.518Z,929.59
2019-05-07T05:06:23.851Z,929.57
2019-05-07T05:07:22.525Z,929.59
2019-05-07T05:08:23.451Z,929.57
2019-05-07T05:09:23.325Z,929.59
2019-05-07T05:10:23.170Z,929.55
2019-05-07T05:11:23.759Z,929.63
2019-05-07T05:12:23.051Z,929.62
2019-05-07T05:13:23.497Z,929.62
2019-05-07T05:14:22.784Z,929.65
2019-05-07T05:15:22.189Z,929.67
2019-05-07T05:16:22.438Z,929.64
2019-05-07T05:17:22.429Z,929.59
2019-05-07T05:18:21.941Z,929.55
2019-05-07T05:19:22.937Z,929.53
2019-05-07T05:20:22.176Z,929.50
2019-05-07T05:21:22.778Z,929.46
2019-05-07T05:22:22.183Z,929.46
2019-05-07T05:23:22.762Z,929.47
2019-05-07T05:24:22.177Z,929.45
2019-05-07T05:25:22.723Z,929.47
2019-05-07T05:26:21.875Z,929.47
2019-05-07T05:27:22.609Z,929.51
2019-05-07T05:28:21.827Z,929.50
2019-05-07T05:29:22.685Z,929.46
2019-05-07T05:30:21.964Z,929.54
2019-05-07T05:31:22.272Z,929.53
2019-05-07T05:32:22.616Z,929.50
2019-05-07T05:33:23.262Z,929.52
2019-05-07T05:34:22.238Z,929.54
2019-05-07T05:35:22.198Z,929.47
2019-05-07T05:36:22.180Z,929.44
2019-05-07T05:37:22.553Z,929.43
2019-05-07T05:38:22.191Z,929.46
2019-05-07T05:39:22.496Z,929.46
2019-05-07T05:40:22.557Z,929.53
2019-05-07T05:41:22.470Z,929.52
2019-05-07T05:42:22.457Z,929.56
2019-05-07T05:43:22.366Z,929.60
2019-05-07T05:44:22.633Z,929.61
2019-05-07T05:45:21.742Z,929.63
2019-05-07T05:46:22.520Z,929.60
2019-05-07T05:47:22.179Z,929.64
2019-05-07T05:48:22.229Z,929.63
2019-05-07T05:49:20.273Z,929.67
2019-05-07T05:50:21.854Z,929.64
2019-05-07T05:51:22.595Z,929.66
2019-05-07T05:52:22.068Z,929.65
2019-05-07T05:53:21.842Z,929.71
2019-05-07T05:54:22.209Z,929.71
2019-05-07T05:55:20.154Z,929.70
2019-05-07T05:56:20.140Z,929.68
2019-05-07T05:57:20.109Z,929.64
2019-05-07T05:58:20.085Z,929.63
2019-05-07T05:59:25.460Z,929.61
2019-05-07T06:00:22.126Z,929.48
2019-05-07T06:01:22.434Z,929.58
2019-05-07T06:02:19.973Z,929.54
2019-05-07T06:03:19.971Z,929.50
2019-05-07T06:04:22.177Z,929.45
2019-05-07T06:05:22.016Z,929.42
2019-05-07T06:06:21.963Z,929.46
2019-05-07T06:07:19.883Z,929.41
2019-05-07T06:08:19.875Z,929.40
2019-05-07T06:09:21.845Z,929.36
2019-05-07T06:10:22.308Z,929.33
2019-05-07T06:11:21.759Z,929.32
2019-05-07T06:12:21.994Z,929.35
2019-05-07T06:13:19.759Z,929.35
2019-05-07T06:14:22.070Z,929.36
2019-05-07T06:15:22.075Z,929.32
2019-05-07T06:16:21.940Z,929.39
2019-05-07T06:17:19.751Z,929.35
2019-05-07T06:18:23.444Z,929.33
2019-05-07T06:19:19.609Z,929.38
2019-05-07T06:20:19.609Z,929.35
2019-05-07T06:21:19.571Z,929.26
2019-05-07T06:22:19.627Z,929.27
2019-05-07T06:23:19.548Z,929.26
2019-05-07T06:24:19.528Z,929.27
2019-05-07T06:25:19.512Z,929.24
2019-05-07T06:26:19.480Z,929.24
2019-05-07T06:27:19.461Z,929.29
2019-05-07T06:28:19.426Z,929.24
2019-05-07T06:29:20.273Z,929.31
2019-05-07T06:30:19.397Z,929.32
2019-05-07T06:31:19.374Z,929.32
2019-05-07T06:32:19.349Z,929.37
2019-05-07T06:33:19.327Z,929.36
2019-05-07T06:34:19.311Z,929.38
2019-05-07T06:35:19.513Z,929.37
2019-05-07T06:36:19.268Z,929.42
2019-05-07T06:37:19.255Z,929.43
2019-05-07T06:38:19.206Z,929.46
2019-05-07T06:39:19.207Z,929.44
2019-05-07T06:40:21.462Z,929.44
2019-05-07T06:41:19.165Z,929.41
2019-05-07T06:42:19.143Z,929.46
2019-05-07T06:43:19.120Z,929.45
2019-05-07T06:44:19.099Z,929.49
2019-05-07T06:45:19.077Z,929.48
2019-05-07T06:46:19.057Z,929.41
2019-05-07T06:47:19.015Z,929.46
2019-05-07T06:48:33.543Z,929.47
2019-05-07T06:49:18.970Z,929.46
2019-05-07T06:50:18.952Z,929.52
2019-05-07T06:51:18.949Z,929.54
2019-05-07T06:52:18.930Z,929.50
2019-05-07T06:53:18.902Z,929.46
2019-05-07T06:54:18.889Z,929.49
2019-05-07T06:55:18.842Z,929.50
2019-05-07T06:56:18.845Z,929.45
2019-05-07T06:57:18.832Z,929.52
2019-05-07T06:58:18.807Z,929.44
2019-05-07T06:59:18.778Z,929.43
2019-05-07T07:00:18.756Z,929.42
2019-05-07T07:01:18.736Z,929.42
2019-05-07T07:02:18.715Z,929.41
2019-05-07T07:03:18.686Z,929.49
2019-05-07T07:04:18.667Z,929.45
2019-05-07T07:05:18.654Z,929.46
2019-05-07T07:06:18.630Z,929.44
2019-05-07T07:07:27.362Z,929.38
2019-05-07T07:08:18.585Z,929.49
2019-05-07T07:09:18.564Z,929.48
2019-05-07T07:10:18.542Z,929.50
2019-05-07T07:11:18.502Z,929.48
2019-05-07T07:12:18.479Z,929.47
2019-05-07T07:13:18.462Z,929.42
2019-05-07T07:14:18.436Z,929.41
2019-05-07T07:15:18.418Z,929.42
2019-05-07T07:16:18.397Z,929.40
2019-05-07T07:17:18.390Z,929.41
2019-05-07T07:18:18.368Z,929.41
2019-05-07T07:19:18.345Z,929.39
2019-05-07T07:20:18.325Z,929.44
2019-05-07T07:21:18.304Z,929.38
2019-05-07T07:22:18.286Z,929.39
2019-05-07T07:23:18.250Z,929.40
2019-05-07T07:24:18.242Z,929.42
2019-05-07T07:25:18.205Z,929.38
2019-05-07T07:26:18.275Z,929.34
2019-05-07T07:27:18.178Z,929.32
2019-05-07T07:28:18.154Z,929.37
2019-05-07T07:29:18.138Z,929.37
2019-05-07T07:30:18.116Z,929.38
2019-05-07T07:31:18.099Z,929.38
2019-05-07T07:32:18.058Z,929.33
2019-05-07T07:33:18.032Z,929.33
2019-05-07T07:34:18.010Z,929.37
2019-05-07T07:35:18.012Z,929.37
2019-05-07T07:36:17.983Z,929.31
2019-05-07T07:37:17.962Z,929.31
2019-05-07T07:38:17.942Z,929.31
2019-05-07T07:39:17.918Z,929.28
2019-05-07T07:40:17.897Z,929.23
2019-05-07T07:41:17.879Z,929.28
2019-05-07T07:42:17.858Z,929.22
2019-05-07T07:43:17.831Z,929.23
2019-05-07T07:44:17.816Z,929.24
2019-05-07T07:45:17.791Z,929.27
2019-05-07T07:46:17.768Z,929.26
2019-05-07T07:47:17.746Z,929.29
2019-05-07T07:48:17.727Z,929.26
2019-05-07T07:49:17.707Z,929.26
2019-05-07T07:50:17.682Z,929.32
2019-05-07T07:51:17.670Z,929.31
2019-05-07T07:52:17.621Z,929.27
2019-05-07T07:53:17.639Z,929.31
2019-05-07T07:54:17.604Z,929.34
2019-05-07T07:55:17.582Z,929.27
2019-05-07T07:56:17.557Z,929.33
2019-05-07T07:57:17.532Z,929.32
2019-05-07T07:58:17.508Z,929.26
2019-05-07T07:59:17.494Z,929.34
2019-05-07T08:00:17.446Z,929.21
2019-05-07T08:01:17.453Z,929.23
2019-05-07T08:02:17.423Z,929.25
2019-05-07T08:03:17.404Z,929.14
2019-05-07T08:04:17.379Z,929.21
2019-05-07T08:05:17.364Z,929.15
2019-05-07T08:06:17.336Z,929.16
2019-05-07T08:07:17.323Z,929.13
2019-05-07T08:08:17.296Z,929.18
2019-05-07T08:09:17.275Z,929.17
2019-05-07T08:10:17.232Z,929.17
2019-05-07T08:11:17.233Z,929.17
2019-05-07T08:12:17.206Z,929.14
2019-05-07T08:13:17.188Z,929.10
2019-05-07T08:14:17.167Z,929.08
2019-05-07T08:15:21.151Z,929.05
2019-05-07T08:16:17.125Z,929.02
2019-05-07T08:17:17.080Z,929.07
2019-05-07T08:18:17.070Z,929.03
2019-05-07T08:19:21.936Z,928.98
2019-05-07T08:20:17.040Z,929.00
2019-05-07T08:21:17.014Z,928.96
2019-05-07T08:22:16.992Z,928.98
2019-05-07T08:23:16.975Z,929.01
2019-05-07T08:24:16.955Z,928.94
2019-05-07T08:25:16.936Z,929.02
2019-05-07T08:26:16.900Z,929.06
2019-05-07T08:27:16.861Z,929.07
2019-05-07T08:28:16.843Z,929.11
2019-05-07T08:29:16.847Z,929.12
2019-05-07T08:30:16.799Z,929.15
2019-05-07T08:31:16.794Z,929.19
2019-05-07T08:32:16.774Z,929.18
2019-05-07T08:33:16.755Z,929.21
2019-05-07T08:34:16.732Z,929.16
2019-05-07T08:35:16.709Z,929.14
2019-05-07T08:36:16.693Z,929.16
2019-05-07T08:37:16.648Z,929.16
2019-05-07T08:38:16.626Z,929.11
2019-05-07T08:39:16.620Z,929.04
2019-05-07T08:40:16.598Z,929.07
2019-05-07T08:41:16.690Z,929.13
2019-05-07T08:42:16.568Z,929.09
2019-05-07T08:43:16.622Z,929.04
2019-05-07T08:44:16.518Z,929.07
2019-05-07T08:45:16.570Z,929.04
2019-05-07T08:46:16.449Z,929.08
2019-05-07T08:47:16.450Z,928.98
2019-05-07T08:48:16.429Z,929.05
2019-05-07T08:49:16.403Z,928.94
2019-05-07T08:50:16.384Z,928.92
2019-05-07T08:51:16.358Z,928.88
2019-05-07T08:52:16.344Z,928.87
2019-05-07T08:53:16.321Z,928.87
2019-05-07T08:54:16.296Z,928.81
2019-05-07T08:57:01.947Z,928.75
2019-05-07T08:58:02.210Z,928.64
2019-05-07T08:59:02.032Z,928.63
2019-05-07T09:00:01.699Z,928.67
2019-05-07T09:01:02.903Z,928.59
2019-05-07T09:02:00.116Z,928.52
2019-05-07T09:03:01.676Z,928.54
2019-05-07T09:04:02.375Z,928.48
2019-05-07T09:05:02.756Z,928.45
2019-05-07T09:06:00.020Z,928.43
2019-05-07T09:07:00.011Z,928.36
2019-05-07T09:08:02.092Z,928.37
2019-05-07T09:09:02.119Z,928.40
2019-05-07T09:10:02.286Z,928.37
2019-05-07T09:11:01.760Z,928.28
2019-05-07T09:11:59.894Z,928.31
2019-05-07T09:12:59.870Z,928.28
2019-05-07T09:14:01.741Z,928.16
2019-05-07T09:15:02.011Z,928.10
2019-05-07T09:16:02.291Z,928.10
2019-05-07T09:17:02.169Z,928.11
2019-05-07T09:18:01.877Z,928.09
2019-05-07T09:19:02.051Z,928.10
2019-05-07T09:20:02.364Z,928.15
2019-05-07T09:21:02.056Z,928.10
2019-05-07T09:22:01.910Z,928.24
2019-05-07T09:23:01.929Z,928.23
2019-05-07T09:23:59.629Z,928.36
2019-05-07T09:24:59.582Z,928.42
2019-05-07T09:25:59.583Z,928.48
2019-05-07T09:26:59.561Z,928.48
2019-05-07T09:27:59.537Z,928.50
2019-05-07T09:28:59.518Z,928.52
2019-05-07T09:29:59.497Z,928.53
2019-05-07T09:31:01.682Z,928.51
2019-05-07T09:31:59.451Z,928.49
2019-05-07T09:32:59.423Z,928.51
2019-05-07T09:33:59.401Z,928.44
2019-05-07T09:34:59.384Z,928.50
2019-05-07T09:35:59.357Z,928.50
2019-05-07T09:36:59.340Z,928.54
2019-05-07T09:37:59.642Z,928.57
2019-05-07T09:38:59.491Z,928.61
2019-05-07T09:39:59.278Z,928.65
2019-05-07T09:40:59.254Z,928.68
2019-05-07T09:41:59.230Z,928.66
2019-05-07T09:42:59.211Z,928.70
2019-05-07T09:43:59.186Z,928.83
2019-05-07T09:44:59.148Z,928.84
2019-05-07T09:45:59.139Z,928.91
2019-05-07T09:46:59.118Z,929.01
2019-05-07T09:47:59.097Z,929.07
2019-05-07T09:48:59.080Z,929.07
2019-05-07T09:50:04.500Z,929.15
2019-05-07T09:50:59.035Z,929.13
2019-05-07T09:51:59.014Z,929.16
2019-05-07T09:52:58.975Z,929.22
2019-05-07T09:53:58.999Z,929.33
2019-05-07T09:54:58.944Z,929.32
2019-05-07T09:55:58.973Z,929.39
2019-05-07T09:56:58.907Z,929.39
2019-05-07T09:57:58.907Z,929.39
2019-05-07T09:58:58.865Z,929.40
2019-05-07T09:59:58.839Z,929.40
2019-05-07T10:00:58.821Z,929.45
2019-05-07T10:01:58.795Z,929.56
2019-05-07T10:02:58.774Z,929.55
2019-05-07T10:03:58.762Z,929.62
2019-05-07T10:04:58.732Z,929.62
2019-05-07T10:05:58.691Z,929.68
2019-05-07T10:06:58.674Z,929.62
2019-05-07T10:07:58.671Z,929.59
2019-05-07T10:08:58.644Z,929.62
2019-05-07T10:09:58.630Z,929.60
2019-05-07T10:10:58.604Z,929.60
2019-05-07T10:11:58.569Z,929.63
2019-05-07T10:12:58.564Z,929.66
2019-05-07T10:13:58.519Z,929.68
2019-05-07T10:14:58.500Z,929.63
2019-05-07T10:15:58.499Z,929.59
2019-05-07T10:16:58.480Z,929.58
2019-05-07T10:17:58.460Z,929.57
2019-05-07T10:18:58.430Z,929.68
2019-05-07T10:19:58.392Z,929.66
2019-05-07T10:20:58.399Z,929.75
2019-05-07T10:21:58.370Z,929.76
2019-05-07T10:22:58.357Z,929.79
2019-05-07T10:23:58.327Z,929.77
2019-05-07T10:24:58.308Z,929.76
2019-05-07T10:25:58.282Z,929.80
2019-05-07T10:26:58.265Z,929.84
2019-05-07T10:27:58.229Z,929.84
2019-05-07T10:28:58.199Z,929.81
2019-05-07T10:29:58.203Z,929.88
2019-05-07T10:30:58.181Z,929.85
2019-05-07T10:31:58.149Z,929.89
2019-05-07T10:32:58.448Z,929.97
2019-05-07T10:33:58.101Z,929.99
2019-05-07T10:34:58.076Z,930.00
2019-05-07T10:35:58.076Z,929.96
2019-05-07T10:36:58.058Z,929.93
2019-05-07T10:37:58.031Z,929.90
2019-05-07T10:38:58.015Z,929.93
2019-05-07T10:39:57.995Z,929.95
2019-05-07T10:40:58.304Z,929.99
2019-05-07T10:41:57.966Z,930.03
2019-05-07T10:42:57.910Z,930.07
2019-05-07T10:43:57.917Z,930.00
2019-05-07T10:44:57.894Z,930.06
2019-05-07T10:45:57.870Z,930.01
2019-05-07T10:46:57.850Z,930.06
2019-05-07T10:47:57.830Z,930.02
2019-05-07T10:48:57.810Z,930.00
2019-05-07T10:49:59.268Z,930.00
2019-05-07T10:50:58.319Z,929.97
2019-05-07T10:51:57.750Z,930.03
2019-05-07T10:52:57.730Z,930.07
2019-05-07T10:53:57.795Z,930.07
2019-05-07T10:54:59.986Z,930.07
2019-05-07T10:55:57.647Z,930.11
2019-05-07T10:56:57.624Z,930.11
2019-05-07T10:57:57.627Z,930.14
2019-05-07T10:58:57.601Z,930.11
2019-05-07T10:59:57.586Z,930.09
2019-05-07T11:00:57.564Z,930.11
2019-05-07T11:01:57.543Z,930.11
2019-05-07T11:02:57.554Z,930.14
2019-05-07T11:03:57.502Z,930.18
2019-05-07T11:04:57.480Z,930.19
2019-05-07T11:05:57.462Z,930.22
2019-05-07T11:06:57.436Z,930.27
2019-05-07T11:07:57.418Z,930.26
2019-05-07T11:08:57.402Z,930.27
2019-05-07T11:09:57.361Z,930.31
2019-05-07T11:10:57.336Z,930.25
2019-05-07T11:11:57.334Z,930.30
2019-05-07T11:12:57.326Z,930.29
2019-05-07T11:13:57.298Z,930.26
2019-05-07T11:14:57.273Z,930.25
2019-05-07T11:15:57.256Z,930.32
2019-05-07T11:16:57.243Z,930.33
2019-05-07T11:17:57.200Z,930.29
2019-05-07T11:18:57.173Z,930.37
2019-05-07T11:19:57.174Z,930.37
2019-05-07T11:20:57.149Z,930.45
2019-05-07T11:21:57.133Z,930.48
2019-05-07T11:22:57.114Z,930.46
2019-05-07T11:23:57.092Z,930.46
2019-05-07T11:24:57.104Z,930.41
2019-05-07T11:25:57.060Z,930.42
2019-05-07T11:26:57.028Z,930.54
2019-05-07T11:27:57.015Z,930.50
2019-05-07T11:28:56.990Z,930.60
2019-05-07T11:29:56.969Z,930.65
2019-05-07T11:30:56.950Z,930.67
2019-05-07T11:31:56.932Z,930.66
2019-05-07T11:32:56.916Z,930.60
2019-05-07T11:33:56.884Z,930.65
2019-05-07T11:34:56.868Z,930.68
2019-05-07T11:35:56.848Z,930.64
2019-05-07T11:36:56.809Z,930.65
2019-05-07T11:37:56.805Z,930.64
2019-05-07T11:38:56.784Z,930.70
2019-05-07T11:39:56.768Z,930.74
2019-05-07T11:40:56.741Z,930.81
2019-05-07T11:41:56.722Z,930.86
2019-05-07T11:42:56.704Z,930.81
2019-05-07T11:43:56.683Z,930.86
2019-05-07T11:44:56.664Z,930.92
2019-05-07T11:45:58.965Z,930.88
2019-05-07T11:46:56.608Z,930.86
2019-05-07T11:47:56.599Z,930.91
2019-05-07T11:48:56.580Z,930.92
2019-05-07T11:49:56.558Z,930.94
2019-05-07T11:51:03.324Z,930.89
2019-05-07T11:51:56.527Z,930.85
2019-05-07T11:52:56.479Z,930.87
2019-05-07T11:53:56.482Z,930.92
2019-05-07T11:54:56.464Z,930.93
2019-05-07T11:55:56.439Z,930.87
2019-05-07T11:56:56.416Z,930.91
2019-05-07T11:57:56.406Z,930.92
2019-05-07T11:58:56.383Z,930.94
2019-05-07T11:59:56.339Z,930.98
2019-05-07T12:00:56.323Z,930.96
2019-05-07T12:01:56.319Z,930.96
2019-05-07T12:02:56.308Z,930.99
2019-05-07T12:03:56.403Z,930.97
2019-05-07T12:04:56.257Z,930.98
2019-05-07T12:06:29.445Z,930.99
2019-05-07T12:06:56.216Z,930.96
2019-05-07T12:07:56.207Z,930.94
2019-05-07T12:08:56.192Z,930.96
2019-05-07T12:09:56.161Z,930.98
2019-05-07T12:10:56.135Z,930.96
2019-05-07T12:11:56.123Z,931.02
2019-05-07T12:12:56.080Z,931.03
2019-05-07T12:13:57.382Z,931.01
2019-05-07T12:14:56.058Z,931.05
2019-05-07T12:15:56.035Z,931.11
2019-05-07T12:16:56.018Z,931.14
2019-05-07T12:17:55.996Z,931.21
2019-05-07T12:18:55.961Z,931.23
2019-05-07T12:19:55.939Z,931.18
2019-05-07T12:20:55.942Z,931.15
2019-05-07T12:21:55.897Z,931.18
2019-05-07T12:22:55.898Z,931.11
2019-05-07T12:23:55.878Z,931.13
2019-05-07T12:24:55.860Z,931.10
2019-05-07T12:25:55.837Z,931.03
2019-05-07T12:26:55.800Z,931.13
2019-05-07T12:27:55.803Z,931.20
2019-05-07T12:28:55.782Z,931.22
2019-05-07T12:29:55.747Z,931.21